createdAt,value
2018-01-02T00:00:07.473Z,0
2018-01-02T00:01:07.407Z,0
2018-01-02T00:02:07.474Z,0
2018-01-02T00:03:07.405Z,0
2018-01-02T00:04:07.536Z,0
2018-01-02T00:05:07.368Z,0
2018-01-02T00:06:07.348Z,0
2018-01-02T00:07:07.344Z,0
2018-01-02T00:08:07.409Z,0
2018-01-02T00:09:07.465Z,0
2018-01-02T00:10:07.407Z,0
2018-01-02T00:11:07.428Z,0
2018-01-02T00:12:07.467Z,0
2018-01-02T00:13:07.342Z,0
2018-01-02T00:14:07.410Z,0
2018-01-02T00:15:07.382Z,0
2018-01-02T00:16:07.366Z,0
2018-01-02T00:17:07.434Z,0
2018-01-02T00:18:07.393Z,0
2018-01-02T00:19:07.459Z,0
2018-01-02T00:20:07.492Z,0
2018-01-02T00:21:07.437Z,0
2018-01-02T00:22:07.475Z,0
2018-01-02T00:23:07.374Z,0
2018-01-02T00:24:07.356Z,0
2018-01-02T00:25:07.425Z,0
2018-01-02T00:26:07.496Z,0
2018-01-02T00:27:07.424Z,0
2018-01-02T00:28:07.492Z,0
2018-01-02T00:29:07.494Z,0
2018-01-02T00:30:07.504Z,0
2018-01-02T00:31:07.427Z,0
2018-01-02T00:32:07.494Z,0
2018-01-02T00:33:07.430Z,0
2018-01-02T00:34:07.493Z,0
2018-01-02T00:35:07.431Z,0
2018-01-02T00:36:07.436Z,0
2018-01-02T00:37:07.498Z,0
2018-01-02T00:38:07.431Z,0
2018-01-02T00:39:07.501Z,0
2018-01-02T00:40:07.431Z,0
2018-01-02T00:41:07.501Z,0
2018-01-02T00:42:07.506Z,0
2018-01-02T00:43:07.445Z,0
2018-01-02T00:44:07.502Z,0
2018-01-02T00:45:07.370Z,0
2018-01-02T00:46:07.497Z,0
2018-01-02T00:47:07.702Z,0
2018-01-02T00:48:07.495Z,0
2018-01-02T00:49:07.474Z,0
2018-01-02T00:50:07.494Z,0
2018-01-02T00:51:07.457Z,0
2018-01-02T00:52:07.476Z,0
2018-01-02T00:53:07.407Z,0
2018-01-02T00:54:07.498Z,0
2018-01-02T00:55:07.507Z,0
2018-01-02T00:56:07.441Z,0
2018-01-02T00:57:07.444Z,0
2018-01-02T00:58:07.440Z,0
2018-01-02T00:59:07.509Z,0
2018-01-02T01:00:07.489Z,0
2018-01-02T01:01:07.514Z,0
2018-01-02T01:02:07.446Z,0
2018-01-02T01:03:07.471Z,0
2018-01-02T01:04:07.513Z,0
2018-01-02T01:05:07.417Z,0
2018-01-02T01:06:07.504Z,0
2018-01-02T01:07:07.417Z,0
2018-01-02T01:08:07.514Z,0
2018-01-02T01:09:07.442Z,0
2018-01-02T01:10:07.468Z,0
2018-01-02T01:11:07.465Z,0
2018-01-02T01:12:07.439Z,0
2018-01-02T01:13:07.484Z,0
2018-01-02T01:14:07.449Z,0
2018-01-02T01:15:07.449Z,0
2018-01-02T01:16:07.508Z,0
2018-01-02T01:17:07.421Z,0
2018-01-02T01:18:07.512Z,0
2018-01-02T01:19:07.490Z,0
2018-01-02T01:20:07.447Z,0
2018-01-02T01:21:07.473Z,0
2018-01-02T01:22:07.406Z,0
2018-01-02T01:23:07.405Z,0
2018-01-02T01:24:07.451Z,0
2018-01-02T01:25:07.384Z,0
2018-01-02T01:26:07.477Z,0
2018-01-02T01:27:07.383Z,0
2018-01-02T01:28:07.554Z,0
2018-01-02T01:29:07.531Z,0
2018-01-02T01:30:07.422Z,0
2018-01-02T01:31:07.490Z,0
2018-01-02T01:32:07.459Z,0
2018-01-02T01:33:07.452Z,0
2018-01-02T01:34:07.463Z,0
2018-01-02T01:35:07.435Z,0
2018-01-02T01:36:07.477Z,0
2018-01-02T01:37:07.465Z,0
2018-01-02T01:38:07.463Z,0
2018-01-02T01:39:07.487Z,0
2018-01-02T01:40:07.500Z,0
2018-01-02T01:41:07.465Z,0
2018-01-02T01:42:07.525Z,0
2018-01-02T01:43:07.437Z,0
2018-01-02T01:44:07.502Z,0
2018-01-02T01:45:07.469Z,0
2018-01-02T01:46:07.473Z,0
2018-01-02T01:47:07.573Z,0
2018-01-02T01:48:07.577Z,0
2018-01-02T01:49:07.471Z,0
2018-01-02T01:50:07.547Z,0
2018-01-02T01:51:07.470Z,0
2018-01-02T01:52:07.542Z,0
2018-01-02T01:53:07.516Z,0
2018-01-02T01:54:07.475Z,0
2018-01-02T01:55:07.478Z,0
2018-01-02T01:56:07.544Z,0
2018-01-02T01:57:07.478Z,0
2018-01-02T01:58:07.478Z,0
2018-01-02T01:59:07.545Z,0
2018-01-02T02:00:07.480Z,0
2018-01-02T02:01:07.478Z,0
2018-01-02T02:02:07.553Z,0
2018-01-02T02:03:07.481Z,0
2018-01-02T02:04:07.547Z,0
2018-01-02T02:05:07.488Z,0
2018-01-02T02:06:07.551Z,0
2018-01-02T02:07:07.485Z,0
2018-01-02T02:08:07.441Z,0
2018-01-02T02:09:07.486Z,0
2018-01-02T02:10:07.553Z,0
2018-01-02T02:11:07.486Z,0
2018-01-02T02:12:07.555Z,0
2018-01-02T02:13:07.547Z,0
2018-01-02T02:14:07.556Z,0
2018-01-02T02:15:07.482Z,0
2018-01-02T02:16:07.637Z,0
2018-01-02T02:17:07.557Z,0
2018-01-02T02:18:07.557Z,0
2018-01-02T02:19:07.556Z,0
2018-01-02T02:20:07.490Z,0
2018-01-02T02:21:07.558Z,0
2018-01-02T02:22:07.491Z,0
2018-01-02T02:23:07.489Z,0
2018-01-02T02:24:07.561Z,0
2018-01-02T02:25:07.532Z,0
2018-01-02T02:26:07.467Z,0
2018-01-02T02:27:07.533Z,0
2018-01-02T02:28:07.531Z,0
2018-01-02T02:29:07.426Z,0
2018-01-02T02:30:07.468Z,0
2018-01-02T02:31:07.514Z,0
2018-01-02T02:32:07.478Z,0
2018-01-02T02:33:07.498Z,0
2018-01-02T02:34:07.433Z,0
2018-01-02T02:35:07.520Z,0
2018-01-02T02:36:07.556Z,0
2018-01-02T02:37:07.468Z,0
2018-01-02T02:38:07.560Z,0
2018-01-02T02:39:07.630Z,0
2018-01-02T02:40:07.559Z,0
2018-01-02T02:41:07.518Z,0
2018-01-02T02:42:07.455Z,0
2018-01-02T02:43:07.572Z,0
2018-01-02T02:44:07.562Z,0
2018-01-02T02:45:07.507Z,0
2018-01-02T02:46:07.580Z,0
2018-01-02T02:47:07.662Z,0
2018-01-02T02:48:07.575Z,0
2018-01-02T02:49:07.511Z,0
2018-01-02T02:50:07.503Z,0
2018-01-02T02:51:07.578Z,0
2018-01-02T02:52:07.511Z,0
2018-01-02T02:53:07.619Z,0
2018-01-02T02:54:07.578Z,0
2018-01-02T02:55:07.524Z,0
2018-01-02T02:56:07.586Z,0
2018-01-02T02:57:07.513Z,0
2018-01-02T02:58:07.583Z,0
2018-01-02T02:59:07.510Z,0
2018-01-02T03:00:07.583Z,0
2018-01-02T03:01:07.519Z,0
2018-01-02T03:02:07.586Z,0
2018-01-02T03:03:07.590Z,0
2018-01-02T03:04:07.592Z,0
2018-01-02T03:05:07.453Z,0
2018-01-02T03:06:07.468Z,0
2018-01-02T03:07:07.476Z,0
2018-01-02T03:08:07.469Z,0
2018-01-02T03:09:07.483Z,0
2018-01-02T03:10:07.517Z,0
2018-01-02T03:11:07.518Z,0
2018-01-02T03:12:07.577Z,0
2018-01-02T03:13:07.500Z,0
2018-01-02T03:14:07.548Z,0
2018-01-02T03:15:07.591Z,0
2018-01-02T03:16:07.591Z,0
2018-01-02T03:17:07.530Z,0
2018-01-02T03:18:07.592Z,0
2018-01-02T03:19:07.527Z,0
2018-01-02T03:20:07.531Z,0
2018-01-02T03:21:07.484Z,0
2018-01-02T03:22:07.554Z,0
2018-01-02T03:23:07.485Z,0
2018-01-02T03:24:07.531Z,0
2018-01-02T03:25:07.596Z,0
2018-01-02T03:26:07.532Z,0
2018-01-02T03:27:07.600Z,0
2018-01-02T03:28:07.604Z,0
2018-01-02T03:29:07.535Z,0
2018-01-02T03:30:07.605Z,0
2018-01-02T03:31:07.537Z,0
2018-01-02T03:32:07.602Z,0
2018-01-02T03:33:07.537Z,0
2018-01-02T03:34:07.589Z,0
2018-01-02T03:35:07.609Z,0
2018-01-02T03:36:07.557Z,0
2018-01-02T03:37:07.603Z,0
2018-01-02T03:38:07.606Z,0
2018-01-02T03:39:07.543Z,0
2018-01-02T03:40:07.607Z,0
2018-01-02T03:41:07.564Z,0
2018-01-02T03:42:07.540Z,0
2018-01-02T03:43:07.608Z,0
2018-01-02T03:44:07.542Z,0
2018-01-02T03:45:07.518Z,0
2018-01-02T03:46:07.578Z,0
2018-01-02T03:47:07.601Z,0
2018-01-02T03:48:07.585Z,0
2018-01-02T03:49:07.581Z,0
2018-01-02T03:50:07.519Z,0
2018-01-02T03:51:07.603Z,0
2018-01-02T03:52:07.608Z,0
2018-01-02T03:53:07.745Z,0
2018-01-02T03:54:07.604Z,0
2018-01-02T03:55:07.617Z,0
2018-01-02T03:56:07.593Z,0
2018-01-02T03:57:07.619Z,0
2018-01-02T03:58:07.554Z,0
2018-01-02T03:59:07.561Z,0
2018-01-02T04:00:07.555Z,0
2018-01-02T04:01:07.620Z,0
2018-01-02T04:02:07.552Z,0
2018-01-02T04:03:07.625Z,0
2018-01-02T04:04:07.559Z,0
2018-01-02T04:05:07.508Z,0
2018-01-02T04:06:07.585Z,0
2018-01-02T04:07:07.482Z,0
2018-01-02T04:08:07.585Z,0
2018-01-02T04:09:07.494Z,0
2018-01-02T04:10:07.575Z,0
2018-01-02T04:11:07.486Z,0
2018-01-02T04:12:07.576Z,0
2018-01-02T04:13:07.496Z,0
2018-01-02T04:14:07.587Z,0
2018-01-02T04:15:07.578Z,0
2018-01-02T04:16:07.579Z,0
2018-01-02T04:17:07.532Z,0
2018-01-02T04:18:07.692Z,0
2018-01-02T04:19:07.541Z,0
2018-01-02T04:20:07.599Z,0
2018-01-02T04:21:07.534Z,0
2018-01-02T04:22:07.532Z,0
2018-01-02T04:23:07.578Z,0
2018-01-02T04:24:07.542Z,0
2018-01-02T04:25:07.579Z,0
2018-01-02T04:26:07.573Z,0
2018-01-02T04:27:07.625Z,0
2018-01-02T04:28:07.531Z,0
2018-01-02T04:29:07.460Z,0
2018-01-02T04:30:07.486Z,0
2018-01-02T04:31:07.533Z,0
2018-01-02T04:32:07.486Z,0
2018-01-02T04:33:07.583Z,0
2018-01-02T04:34:07.630Z,0
2018-01-02T04:35:07.567Z,0
2018-01-02T04:36:07.539Z,0
2018-01-02T04:37:07.572Z,0
2018-01-02T04:38:07.577Z,0
2018-01-02T04:39:07.590Z,0
2018-01-02T04:40:07.633Z,0
2018-01-02T04:41:07.519Z,0
2018-01-02T04:42:07.542Z,0
2018-01-02T04:43:07.590Z,0
2018-01-02T04:44:07.505Z,0
2018-01-02T04:45:07.632Z,0
2018-01-02T04:46:07.597Z,0
2018-01-02T04:47:07.670Z,0
2018-01-02T04:48:07.533Z,0
2018-01-02T04:49:07.532Z,0
2018-01-02T04:50:07.516Z,0
2018-01-02T04:51:07.605Z,0
2018-01-02T04:52:07.611Z,0
2018-01-02T04:53:07.559Z,0
2018-01-02T04:54:07.576Z,0
2018-01-02T04:55:07.615Z,0
2018-01-02T04:56:07.652Z,0
2018-01-02T04:57:07.586Z,0
2018-01-02T04:58:07.656Z,0
2018-01-02T04:59:07.590Z,0
2018-01-02T05:00:07.655Z,0
2018-01-02T05:01:07.590Z,0
2018-01-02T05:02:07.593Z,0
2018-01-02T05:03:07.658Z,0
2018-01-02T05:04:07.659Z,0
2018-01-02T05:05:07.594Z,0
2018-01-02T05:06:07.659Z,0
2018-01-02T05:07:07.594Z,0
2018-01-02T05:08:07.689Z,0
2018-01-02T05:09:07.591Z,0
2018-01-02T05:10:07.661Z,0
2018-01-02T05:11:07.599Z,0
2018-01-02T05:12:07.634Z,0
2018-01-02T05:13:07.618Z,0
2018-01-02T05:14:07.589Z,0
2018-01-02T05:15:07.622Z,0
2018-01-02T05:16:07.598Z,0
2018-01-02T05:17:07.665Z,0
2018-01-02T05:18:07.596Z,0
2018-01-02T05:19:07.666Z,0
2018-01-02T05:20:07.666Z,0
2018-01-02T05:21:07.602Z,0
2018-01-02T05:22:07.602Z,0
2018-01-02T05:23:07.667Z,0
2018-01-02T05:24:07.598Z,0
2018-01-02T05:25:07.669Z,0
2018-01-02T05:26:07.609Z,0
2018-01-02T05:27:07.671Z,0
2018-01-02T05:28:07.671Z,0
2018-01-02T05:29:07.675Z,0
2018-01-02T05:30:07.675Z,0
2018-01-02T05:31:07.616Z,0
2018-01-02T05:32:07.675Z,0
2018-01-02T05:33:07.610Z,0
2018-01-02T05:34:07.675Z,0
2018-01-02T05:35:07.611Z,0
2018-01-02T05:36:07.579Z,0
2018-01-02T05:37:07.669Z,0
2018-01-02T05:38:07.663Z,0
2018-01-02T05:39:07.614Z,0
2018-01-02T05:40:07.584Z,0
2018-01-02T05:41:07.544Z,0
2018-01-02T05:42:07.665Z,0
2018-01-02T05:43:07.544Z,0
2018-01-02T05:44:07.587Z,0
2018-01-02T05:45:07.651Z,0
2018-01-02T05:46:07.580Z,0
2018-01-02T05:47:07.539Z,0
2018-01-02T05:48:07.628Z,0
2018-01-02T05:49:07.574Z,0
2018-01-02T05:50:07.570Z,0
2018-01-02T05:51:07.633Z,0
2018-01-02T05:52:07.628Z,0
2018-01-02T05:53:07.633Z,0
2018-01-02T05:54:07.578Z,0
2018-01-02T05:55:07.636Z,0
2018-01-02T05:56:07.660Z,0
2018-01-02T05:57:07.677Z,0
2018-01-02T05:58:07.652Z,0
2018-01-02T05:59:07.658Z,0
2018-01-02T06:00:07.678Z,0
2018-01-02T06:01:07.592Z,0
2018-01-02T06:02:07.595Z,0
2018-01-02T06:03:07.662Z,0
2018-01-02T06:04:07.683Z,0
2018-01-02T06:05:07.596Z,0
2018-01-02T06:06:07.622Z,0
2018-01-02T06:07:07.615Z,0
2018-01-02T06:08:07.570Z,0
2018-01-02T06:09:07.601Z,0
2018-01-02T06:10:07.603Z,0
2018-01-02T06:11:07.517Z,0
2018-01-02T06:12:07.600Z,0
2018-01-02T06:13:07.522Z,0
2018-01-02T06:14:07.516Z,0
2018-01-02T06:15:07.605Z,0
2018-01-02T06:16:07.590Z,0
2018-01-02T06:17:07.629Z,0
2018-01-02T06:18:07.567Z,0
2018-01-02T06:19:07.629Z,0
2018-01-02T06:20:07.562Z,0
2018-01-02T06:21:07.652Z,0
2018-01-02T06:22:07.681Z,0
2018-01-02T06:23:07.668Z,0
2018-01-02T06:24:07.614Z,0
2018-01-02T06:25:07.590Z,0
2018-01-02T06:26:07.707Z,0
2018-01-02T06:27:07.655Z,0
2018-01-02T06:28:07.710Z,0
2018-01-02T06:29:07.640Z,0
2018-01-02T06:30:07.597Z,0
2018-01-02T06:31:07.640Z,0
2018-01-02T06:32:07.643Z,0
2018-01-02T06:33:07.713Z,0
2018-01-02T06:34:07.650Z,0
2018-01-02T06:35:07.712Z,0
2018-01-02T06:36:07.678Z,0
2018-01-02T06:37:07.640Z,0
2018-01-02T06:38:07.702Z,0
2018-01-02T06:39:07.685Z,0
2018-01-02T06:40:07.702Z,0
2018-01-02T06:41:07.663Z,0
2018-01-02T06:42:07.683Z,0
2018-01-02T06:43:07.685Z,0
2018-01-02T06:44:07.594Z,0
2018-01-02T06:45:07.775Z,0
2018-01-02T06:46:07.719Z,0
2018-01-02T06:47:07.720Z,0
2018-01-02T06:48:07.649Z,0
2018-01-02T06:49:07.724Z,0
2018-01-02T06:50:07.651Z,4
2018-01-02T06:51:07.660Z,4
2018-01-02T06:52:07.724Z,4
2018-01-02T06:53:07.651Z,4
2018-01-02T06:54:07.725Z,4
2018-01-02T06:55:07.650Z,4
2018-01-02T06:56:07.703Z,8
2018-01-02T06:57:07.678Z,8
2018-01-02T06:58:07.686Z,8
2018-01-02T06:59:07.588Z,8
2018-01-02T07:00:07.676Z,8
2018-01-02T07:01:07.672Z,8
2018-01-02T07:02:07.637Z,8
2018-01-02T07:03:07.598Z,8
2018-01-02T07:04:07.589Z,12
2018-01-02T07:05:07.583Z,16
2018-01-02T07:06:07.632Z,16
2018-01-02T07:07:07.664Z,24
2018-01-02T07:08:07.632Z,24
2018-01-02T07:09:07.707Z,24
2018-01-02T07:10:07.723Z,28
2018-01-02T07:11:07.723Z,32
2018-01-02T07:12:07.734Z,32
2018-01-02T07:13:07.682Z,36
2018-01-02T07:14:07.638Z,44
2018-01-02T07:15:07.618Z,48
2018-01-02T07:16:07.663Z,56
2018-01-02T07:17:07.738Z,68
2018-01-02T07:18:07.666Z,72
2018-01-02T07:19:07.669Z,92
2018-01-02T07:20:07.739Z,112
2018-01-02T07:21:07.667Z,136
2018-01-02T07:22:07.743Z,180
2018-01-02T07:23:07.741Z,240
2018-01-02T07:24:07.630Z,280
2018-01-02T07:25:07.673Z,308
2018-01-02T07:26:07.600Z,348
2018-01-02T07:27:07.700Z,416
2018-01-02T07:28:07.707Z,456
2018-01-02T07:29:07.673Z,492
2018-01-02T07:30:07.679Z,508
2018-01-02T07:31:07.638Z,576
2018-01-02T07:32:07.641Z,644
2018-01-02T07:33:07.672Z,696
2018-01-02T07:34:07.670Z,696
2018-01-02T07:35:07.702Z,660
2018-01-02T07:36:07.743Z,668
2018-01-02T07:37:07.655Z,708
2018-01-02T07:38:07.650Z,688
2018-01-02T07:39:07.757Z,684
2018-01-02T07:40:07.743Z,612
2018-01-02T07:41:07.718Z,516
2018-01-02T07:42:07.723Z,572
2018-01-02T07:43:07.658Z,572
2018-01-02T07:44:07.748Z,512
2018-01-02T07:45:07.657Z,500
2018-01-02T07:46:07.684Z,560
2018-01-02T07:47:07.678Z,652
2018-01-02T07:48:07.629Z,804
2018-01-02T07:49:07.713Z,832
2018-01-02T07:50:07.709Z,852
2018-01-02T07:51:07.646Z,956
2018-01-02T07:52:07.684Z,888
2018-01-02T07:53:07.656Z,944
2018-01-02T07:54:07.656Z,1060
2018-01-02T07:55:07.687Z,1312
2018-01-02T07:56:07.667Z,1424
2018-01-02T07:57:07.669Z,1436
2018-01-02T07:58:07.647Z,1348
2018-01-02T07:59:07.728Z,1216
2018-01-02T08:00:07.652Z,1072
2018-01-02T08:01:07.734Z,1116
2018-01-02T08:02:07.673Z,1148
2018-01-02T08:03:07.714Z,1204
2018-01-02T08:04:07.696Z,1396
2018-01-02T08:05:07.686Z,1604
2018-01-02T08:06:07.715Z,1580
2018-01-02T08:07:07.666Z,1356
2018-01-02T08:08:07.621Z,1276
2018-01-02T08:09:07.711Z,1208
2018-01-02T08:10:07.623Z,1072
2018-01-02T08:11:07.665Z,1164
2018-01-02T08:12:07.714Z,1336
2018-01-02T08:13:07.624Z,1296
2018-01-02T08:14:07.718Z,1208
2018-01-02T08:15:07.674Z,1368
2018-01-02T08:16:07.808Z,1584
2018-01-02T08:17:07.710Z,1784
2018-01-02T08:18:07.774Z,1620
2018-01-02T08:19:07.708Z,1500
2018-01-02T08:20:07.795Z,1440
2018-01-02T08:21:07.720Z,1628
2018-01-02T08:22:07.708Z,1732
2018-01-02T08:23:07.779Z,1764
2018-01-02T08:24:07.707Z,1864
2018-01-02T08:25:07.777Z,2108
2018-01-02T08:26:07.779Z,3164
2018-01-02T08:27:07.724Z,4048
2018-01-02T08:28:07.778Z,3620
2018-01-02T08:29:07.717Z,2860
2018-01-02T08:30:07.782Z,2668
2018-01-02T08:31:07.785Z,2720
2018-01-02T08:32:07.714Z,3276
2018-01-02T08:33:07.785Z,3212
2018-01-02T08:34:07.716Z,2552
2018-01-02T08:35:07.784Z,2052
2018-01-02T08:36:07.721Z,1628
2018-01-02T08:37:07.784Z,1292
2018-01-02T08:38:07.717Z,1268
2018-01-02T08:39:07.789Z,1280
2018-01-02T08:40:07.714Z,1472
2018-01-02T08:41:07.718Z,1884
2018-01-02T08:42:07.790Z,2692
2018-01-02T08:43:07.717Z,3272
2018-01-02T08:44:07.791Z,4116
2018-01-02T08:45:07.722Z,4620
2018-01-02T08:46:07.674Z,3480
2018-01-02T08:47:07.779Z,4036
2018-01-02T08:48:07.694Z,5208
2018-01-02T08:49:07.741Z,5808
2018-01-02T08:50:07.695Z,6232
2018-01-02T08:51:07.808Z,7252
2018-01-02T08:52:07.766Z,8764
2018-01-02T08:53:07.659Z,8540
2018-01-02T08:54:07.783Z,8536
2018-01-02T08:55:07.661Z,8340
2018-01-02T08:56:07.727Z,8400
2018-01-02T08:57:07.799Z,8064
2018-01-02T08:58:07.725Z,8760
2018-01-02T08:59:07.800Z,8400
2018-01-02T09:00:07.734Z,7792
2018-01-02T09:01:07.799Z,6996
2018-01-02T09:02:07.730Z,6708
2018-01-02T09:03:07.841Z,6100
2018-01-02T09:04:07.809Z,6512
2018-01-02T09:05:07.733Z,7300
2018-01-02T09:06:07.735Z,8276
2018-01-02T09:07:07.804Z,8748
2018-01-02T09:08:07.808Z,9208
2018-01-02T09:09:07.733Z,9728
2018-01-02T09:10:07.809Z,13232
2018-01-02T09:11:07.741Z,10608
2018-01-02T09:12:07.805Z,8496
2018-01-02T09:13:07.740Z,9500
2018-01-02T09:14:07.809Z,8744
2018-01-02T09:15:07.746Z,6600
2018-01-02T09:16:07.741Z,6168
2018-01-02T09:17:07.836Z,7696
2018-01-02T09:18:07.812Z,10532
2018-01-02T09:19:07.747Z,12840
2018-01-02T09:20:07.812Z,14104
2018-01-02T09:21:07.745Z,13644
2018-01-02T09:22:07.813Z,12460
2018-01-02T09:23:07.748Z,11804
2018-01-02T09:24:07.815Z,11916
2018-01-02T09:25:07.746Z,13724
2018-01-02T09:26:07.802Z,15052
2018-01-02T09:27:07.812Z,13844
2018-01-02T09:28:07.704Z,16560
2018-01-02T09:29:07.680Z,15152
2018-01-02T09:30:07.805Z,17180
2018-01-02T09:31:07.803Z,14660
2018-01-02T09:32:07.786Z,30528
2018-01-02T09:33:07.766Z,33760
2018-01-02T09:34:07.684Z,24000
2018-01-02T09:35:07.784Z,13792
2018-01-02T09:36:07.725Z,13844
2018-01-02T09:37:07.788Z,15128
2018-01-02T09:38:07.706Z,15928
2018-01-02T09:39:07.725Z,17044
2018-01-02T09:40:07.685Z,17936
2018-01-02T09:41:07.747Z,19176
2018-01-02T09:42:07.824Z,42304
2018-01-02T09:43:07.811Z,44512
2018-01-02T09:44:07.793Z,39712
2018-01-02T09:45:07.727Z,33504
2018-01-02T09:46:07.732Z,16792
2018-01-02T09:47:07.730Z,15460
2018-01-02T09:48:07.732Z,14564
2018-01-02T09:49:07.817Z,12308
2018-01-02T09:50:07.733Z,11708
2018-01-02T09:51:07.763Z,12340
2018-01-02T09:52:07.780Z,10684
2018-01-02T09:53:07.698Z,9980
2018-01-02T09:54:07.818Z,10124
2018-01-02T09:55:07.786Z,11988
2018-01-02T09:56:07.709Z,12508
2018-01-02T09:57:07.714Z,9936
2018-01-02T09:58:07.821Z,10112
2018-01-02T09:59:07.821Z,9572
2018-01-02T10:00:07.759Z,7508
2018-01-02T10:01:07.718Z,6952
2018-01-02T10:02:07.759Z,8720
2018-01-02T10:03:07.739Z,11744
2018-01-02T10:04:07.837Z,15048
2018-01-02T10:05:07.798Z,18136
2018-01-02T10:06:07.718Z,17632
2018-01-02T10:07:07.719Z,16020
2018-01-02T10:08:07.717Z,17524
2018-01-02T10:09:07.741Z,20084
2018-01-02T10:10:07.715Z,24224
2018-01-02T10:11:07.827Z,23264
2018-01-02T10:12:07.780Z,19492
2018-01-02T10:13:07.787Z,17392
2018-01-02T10:14:07.765Z,15364
2018-01-02T10:15:07.750Z,13596
2018-01-02T10:16:07.847Z,13000
2018-01-02T10:17:07.776Z,14220
2018-01-02T10:18:07.847Z,13652
2018-01-02T10:19:07.777Z,15020
2018-01-02T10:20:07.846Z,16048
2018-01-02T10:21:07.779Z,15548
2018-01-02T10:22:07.847Z,13120
2018-01-02T10:23:07.775Z,12720
2018-01-02T10:24:07.849Z,13068
2018-01-02T10:25:07.784Z,12812
2018-01-02T10:26:07.850Z,12644
2018-01-02T10:27:07.787Z,13864
2018-01-02T10:28:07.738Z,12680
2018-01-02T10:29:07.787Z,11396
2018-01-02T10:30:07.779Z,10452
2018-01-02T10:31:07.856Z,9816
2018-01-02T10:32:07.778Z,9144
2018-01-02T10:33:07.856Z,10464
2018-01-02T10:34:07.859Z,11368
2018-01-02T10:35:07.857Z,10320
2018-01-02T10:36:07.739Z,9284
2018-01-02T10:37:07.857Z,7416
2018-01-02T10:38:07.845Z,6160
2018-01-02T10:39:07.842Z,5476
2018-01-02T10:40:07.763Z,5124
2018-01-02T10:41:07.722Z,5008
2018-01-02T10:42:07.788Z,4540
2018-01-02T10:43:07.763Z,4984
2018-01-02T10:44:07.860Z,6072
2018-01-02T10:45:07.744Z,6268
2018-01-02T10:46:07.862Z,5780
2018-01-02T10:47:07.793Z,5560
2018-01-02T10:48:07.751Z,6812
2018-01-02T10:49:07.805Z,7304
2018-01-02T10:50:07.864Z,6264
2018-01-02T10:51:07.797Z,5620
2018-01-02T10:52:07.868Z,5436
2018-01-02T10:53:07.796Z,4716
2018-01-02T10:54:07.868Z,4376
2018-01-02T10:55:07.794Z,4552
2018-01-02T10:56:07.817Z,4612
2018-01-02T10:57:07.869Z,4380
2018-01-02T10:58:07.800Z,4312
2018-01-02T10:59:07.873Z,4180
2018-01-02T11:00:07.891Z,3760
2018-01-02T11:01:07.797Z,3316
2018-01-02T11:02:07.804Z,3148
2018-01-02T11:03:07.806Z,3664
2018-01-02T11:04:07.874Z,3972
2018-01-02T11:05:07.802Z,3700
2018-01-02T11:06:07.877Z,4028
2018-01-02T11:07:07.876Z,4576
2018-01-02T11:08:07.773Z,5744
2018-01-02T11:09:07.815Z,7508
2018-01-02T11:10:07.884Z,9220
2018-01-02T11:11:07.761Z,10176
2018-01-02T11:12:07.868Z,10012
2018-01-02T11:13:07.878Z,9452
2018-01-02T11:14:07.879Z,9524
2018-01-02T11:15:07.877Z,9856
2018-01-02T11:16:07.743Z,10724
2018-01-02T11:17:07.838Z,11988
2018-01-02T11:18:07.830Z,13364
2018-01-02T11:19:07.790Z,14200
2018-01-02T11:20:07.754Z,25824
2018-01-02T11:21:07.770Z,35136
2018-01-02T11:22:07.756Z,45728
2018-01-02T11:23:07.843Z,18928
2018-01-02T11:24:07.788Z,16240
2018-01-02T11:25:07.770Z,14856
2018-01-02T11:26:07.771Z,14004
2018-01-02T11:27:07.890Z,13864
2018-01-02T11:28:07.890Z,17088
2018-01-02T11:29:07.820Z,25472
2018-01-02T11:30:07.891Z,18324
2018-01-02T11:31:07.820Z,15192
2018-01-02T11:32:07.890Z,12940
2018-01-02T11:33:07.824Z,12088
2018-01-02T11:34:07.895Z,12108
2018-01-02T11:35:07.822Z,12032
2018-01-02T11:36:07.893Z,11592
2018-01-02T11:37:07.878Z,11148
2018-01-02T11:38:07.826Z,11732
2018-01-02T11:39:07.859Z,13048
2018-01-02T11:40:07.857Z,17052
2018-01-02T11:41:07.826Z,18396
2018-01-02T11:42:07.770Z,19420
2018-01-02T11:43:07.792Z,23840
2018-01-02T11:44:07.824Z,27392
2018-01-02T11:45:07.855Z,25152
2018-01-02T11:46:07.928Z,24064
2018-01-02T11:47:07.829Z,23232
2018-01-02T11:48:07.900Z,19908
2018-01-02T11:49:07.829Z,17872
2018-01-02T11:50:07.901Z,19780
2018-01-02T11:51:07.827Z,25984
2018-01-02T11:52:07.903Z,30336
2018-01-02T11:53:07.836Z,31392
2018-01-02T11:54:07.913Z,27936
2018-01-02T11:55:07.838Z,26400
2018-01-02T11:56:07.833Z,25792
2018-01-02T11:57:07.898Z,22272
2018-01-02T11:58:07.863Z,16640
2018-01-02T11:59:07.783Z,14528
2018-01-02T12:00:07.869Z,14400
2018-01-02T12:01:07.911Z,14348
2018-01-02T12:02:07.898Z,13636
2018-01-02T12:03:07.848Z,11208
2018-01-02T12:04:07.870Z,9200
2018-01-02T12:05:07.893Z,8104
2018-01-02T12:06:07.820Z,7304
2018-01-02T12:07:07.840Z,7652
2018-01-02T12:08:07.881Z,8972
2018-01-02T12:09:07.800Z,9924
2018-01-02T12:10:07.770Z,9532
2018-01-02T12:11:07.859Z,7588
2018-01-02T12:12:07.778Z,6472
2018-01-02T12:13:07.868Z,5708
2018-01-02T12:14:07.870Z,5532
2018-01-02T12:15:07.820Z,5512
2018-01-02T12:16:07.766Z,6156
2018-01-02T12:17:07.844Z,6460
2018-01-02T12:18:07.905Z,5476
2018-01-02T12:19:07.844Z,5532
2018-01-02T12:20:07.845Z,7324
2018-01-02T12:21:07.921Z,9820
2018-01-02T12:22:07.848Z,11068
2018-01-02T12:23:07.920Z,11280
2018-01-02T12:24:07.847Z,11216
2018-01-02T12:25:07.926Z,10556
2018-01-02T12:26:07.846Z,10172
2018-01-02T12:27:07.869Z,11328
2018-01-02T12:28:07.798Z,13336
2018-01-02T12:29:07.923Z,12320
2018-01-02T12:30:07.826Z,12620
2018-01-02T12:31:07.821Z,13932
2018-01-02T12:32:07.868Z,15048
2018-01-02T12:33:07.928Z,15384
2018-01-02T12:34:07.828Z,15136
2018-01-02T12:35:07.891Z,13904
2018-01-02T12:36:07.871Z,12012
2018-01-02T12:37:07.868Z,11088
2018-01-02T12:38:07.868Z,10888
2018-01-02T12:39:07.870Z,10064
2018-01-02T12:40:07.865Z,9680
2018-01-02T12:41:07.871Z,9592
2018-01-02T12:42:07.877Z,9516
2018-01-02T12:43:07.870Z,9616
2018-01-02T12:44:07.936Z,10108
2018-01-02T12:45:07.876Z,9912
2018-01-02T12:46:07.870Z,8964
2018-01-02T12:47:07.936Z,7392
2018-01-02T12:48:07.865Z,6124
2018-01-02T12:49:07.938Z,5600
2018-01-02T12:50:07.863Z,5836
2018-01-02T12:51:07.937Z,5736
2018-01-02T12:52:07.866Z,5596
2018-01-02T12:53:07.939Z,5960
2018-01-02T12:54:07.870Z,6300
2018-01-02T12:55:07.874Z,6420
2018-01-02T12:56:07.941Z,6496
2018-01-02T12:57:07.867Z,6848
2018-01-02T12:58:07.943Z,7308
2018-01-02T12:59:07.944Z,7960
2018-01-02T13:00:07.871Z,9016
2018-01-02T13:01:07.944Z,10404
2018-01-02T13:02:07.871Z,13244
2018-01-02T13:03:07.943Z,31872
2018-01-02T13:04:07.873Z,35296
2018-01-02T13:05:07.946Z,31040
2018-01-02T13:06:07.876Z,38976
2018-01-02T13:07:07.829Z,38432
2018-01-02T13:08:07.885Z,40512
2018-01-02T13:09:07.779Z,38784
2018-01-02T13:10:07.822Z,40768
2018-01-02T13:11:07.773Z,38560
2018-01-02T13:12:07.903Z,42208
2018-01-02T13:13:07.822Z,38080
2018-01-02T13:14:07.840Z,42720
2018-01-02T13:15:07.896Z,40160
2018-01-02T13:16:07.837Z,28160
2018-01-02T13:17:07.909Z,33888
2018-01-02T13:18:07.913Z,27264
2018-01-02T13:19:07.916Z,29120
2018-01-02T13:20:07.879Z,25056
2018-01-02T13:21:07.882Z,21984
2018-01-02T13:22:07.817Z,16560
2018-01-02T13:23:07.879Z,13320
2018-01-02T13:24:07.827Z,10884
2018-01-02T13:25:07.818Z,10852
2018-01-02T13:26:07.846Z,11304
2018-01-02T13:27:07.961Z,11204
2018-01-02T13:28:07.884Z,10432
2018-01-02T13:29:07.961Z,10428
2018-01-02T13:30:07.893Z,10624
2018-01-02T13:31:07.964Z,11344
2018-01-02T13:32:07.891Z,11368
2018-01-02T13:33:07.964Z,11136
2018-01-02T13:34:07.925Z,11652
2018-01-02T13:35:07.964Z,11032
2018-01-02T13:36:07.887Z,10524
2018-01-02T13:37:07.875Z,9476
2018-01-02T13:38:07.965Z,8584
2018-01-02T13:39:07.915Z,8964
2018-01-02T13:40:07.965Z,9280
2018-01-02T13:41:07.933Z,9256
2018-01-02T13:42:07.850Z,9304
2018-01-02T13:43:07.873Z,9736
2018-01-02T13:44:07.875Z,9984
2018-01-02T13:45:07.895Z,9220
2018-01-02T13:46:07.936Z,8784
2018-01-02T13:47:07.835Z,8856
2018-01-02T13:48:07.905Z,8972
2018-01-02T13:49:07.858Z,8496
2018-01-02T13:50:07.912Z,8024
2018-01-02T13:51:07.857Z,7304
2018-01-02T13:52:07.917Z,6420
2018-01-02T13:53:07.828Z,5876
2018-01-02T13:54:07.827Z,5660
2018-01-02T13:55:07.874Z,5568
2018-01-02T13:56:07.936Z,5744
2018-01-02T13:57:07.873Z,6212